sensor_id;sensor_type;location;lat;lon;timestamp;temperature;humidity
8595;DHT22;4335;48.860;9.198;2023-03-23T00:00:10;14.10;99.90
8595;DHT22;4335;48.860;9.198;2023-03-23T00:02:38;14.10;99.90
8595;DHT22;4335;48.860;9.198;2023-03-23T00:05:06;14.10;99.90
8595;DHT22;4335;48.860;9.198;2023-03-23T00:14:35;14.10;99.90
8595;DHT22;4335;48.860;9.198;2023-03-23T00:17:09;14.10;99.90
8595;DHT22;4335;48.860;9.198;2023-03-23T00:19:40;14.10;99.90
8595;DHT22;4335;48.860;9.198;2023-03-23T00:22:13;14.10;99.90
8595;DHT22;4335;48.860;9.198;2023-03-23T00:24:41;14.20;99.90
8595;DHT22;4335;48.860;9.198;2023-03-23T00:27:09;14.20;99.90
8595;DHT22;4335;48.860;9.198;2023-03-23T00:29:39;14.20;99.90
8595;DHT22;4335;48.860;9.198;2023-03-23T00:32:09;14.30;99.90
8595;DHT22;4335;48.860;9.198;2023-03-23T00:34:39;14.40;99.90
8595;DHT22;4335;48.860;9.198;2023-03-23T00:37:09;14.40;99.90
8595;DHT22;4335;48.860;9.198;2023-03-23T00:39:38;14.40;99.90
8595;DHT22;4335;48.860;9.198;2023-03-23T00:42:13;14.40;99.90
8595;DHT22;4335;48.860;9.198;2023-03-23T00:44:49;14.50;99.90
8595;DHT22;4335;48.860;9.198;2023-03-23T00:52:29;14.40;99.90
8595;DHT22;4335;48.860;9.198;2023-03-23T00:54:56;14.40;99.90
8595;DHT22;4335;48.860;9.198;2023-03-23T00:57:23;14.40;99.90
8595;DHT22;4335;48.860;9.198;2023-03-23T00:59:53;14.40;99.90
8595;DHT22;4335;48.860;9.198;2023-03-23T01:02:21;14.40;99.90
8595;DHT22;4335;48.860;9.198;2023-03-23T01:04:53;14.30;99.90
8595;DHT22;4335;48.860;9.198;2023-03-23T01:07:21;14.30;99.90
8595;DHT22;4335;48.860;9.198;2023-03-23T01:09:50;14.30;99.90
8595;DHT22;4335;48.860;9.198;2023-03-23T01:12:19;14.20;99.90
8595;DHT22;4335;48.860;9.198;2023-03-23T01:14:49;14.20;99.90
8595;DHT22;4335;48.860;9.198;2023-03-23T01:17:20;14.20;99.90
8595;DHT22;4335;48.860;9.198;2023-03-23T01:19:47;14.20;99.90
8595;DHT22;4335;48.860;9.198;2023-03-23T01:22:15;14.20;99.90
8595;DHT22;4335;48.860;9.198;2023-03-23T01:24:42;14.10;99.90
8595;DHT22;4335;48.860;9.198;2023-03-23T01:27:14;14.10;99.90
8595;DHT22;4335;48.860;9.198;2023-03-23T01:29:41;14.10;99.90
8595;DHT22;4335;48.860;9.198;2023-03-23T01:32:09;14.10;99.90
8595;DHT22;4335;48.860;9.198;2023-03-23T01:34:36;14.10;99.90
8595;DHT22;4335;48.860;9.198;2023-03-23T01:37:03;14.00;99.90
8595;DHT22;4335;48.860;9.198;2023-03-23T01:39:31;14.00;99.90
8595;DHT22;4335;48.860;9.198;2023-03-23T01:41:58;14.00;99.90
8595;DHT22;4335;48.860;9.198;2023-03-23T01:47:32;13.90;99.90
8595;DHT22;4335;48.860;9.198;2023-03-23T01:50:00;13.90;99.90
8595;DHT22;4335;48.860;9.198;2023-03-23T01:52:28;13.80;99.90
8595;DHT22;4335;48.860;9.198;2023-03-23T01:54:56;13.80;99.90
8595;DHT22;4335;48.860;9.198;2023-03-23T01:57:25;13.80;99.90
8595;DHT22;4335;48.860;9.198;2023-03-23T01:59:55;13.80;99.90
8595;DHT22;4335;48.860;9.198;2023-03-23T02:02:26;13.80;99.90
8595;DHT22;4335;48.860;9.198;2023-03-23T02:05:04;13.80;99.90
8595;DHT22;4335;48.860;9.198;2023-03-23T02:07:35;13.80;99.90
8595;DHT22;4335;48.860;9.198;2023-03-23T02:10:03;13.80;99.90
8595;DHT22;4335;48.860;9.198;2023-03-23T02:12:32;13.80;99.90
8595;DHT22;4335;48.860;9.198;2023-03-23T02:15:03;13.70;99.90
8595;DHT22;4335;48.860;9.198;2023-03-23T02:17:37;13.70;99.90
8595;DHT22;4335;48.860;9.198;2023-03-23T02:20:18;13.70;99.90
8595;DHT22;4335;48.860;9.198;2023-03-23T02:26:08;13.70;99.90
8595;DHT22;4335;48.860;9.198;2023-03-23T02:29:03;13.60;99.90
8595;DHT22;4335;48.860;9.198;2023-03-23T02:31:48;13.60;99.90
8595;DHT22;4335;48.860;9.198;2023-03-23T02:34:24;13.60;99.90
8595;DHT22;4335;48.860;9.198;2023-03-23T02:36:58;13.50;99.90
8595;DHT22;4335;48.860;9.198;2023-03-23T02:39:30;13.50;99.90
8595;DHT22;4335;48.860;9.198;2023-03-23T02:42:04;13.50;99.90
8595;DHT22;4335;48.860;9.198;2023-03-23T02:44:35;13.40;99.90
8595;DHT22;4335;48.860;9.198;2023-03-23T02:50:28;13.40;99.90
8595;DHT22;4335;48.860;9.198;2023-03-23T02:52:57;13.30;99.90
8595;DHT22;4335;48.860;9.198;2023-03-23T02:55:27;13.40;99.90
8595;DHT22;4335;48.860;9.198;2023-03-23T02:57:55;13.30;99.90
8595;DHT22;4335;48.860;9.198;2023-03-23T03:00:23;13.30;99.90
8595;DHT22;4335;48.860;9.198;2023-03-23T03:02:52;13.30;99.90
8595;DHT22;4335;48.860;9.198;2023-03-23T03:05:34;13.30;99.90
8595;DHT22;4335;48.860;9.198;2023-03-23T03:08:12;13.40;99.90
8595;DHT22;4335;48.860;9.198;2023-03-23T03:10:49;13.40;99.90
8595;DHT22;4335;48.860;9.198;2023-03-23T03:13:25;13.40;99.90
8595;DHT22;4335;48.860;9.198;2023-03-23T03:16:00;13.40;99.90
8595;DHT22;4335;48.860;9.198;2023-03-23T03:18:34;13.40;99.90
8595;DHT22;4335;48.860;9.198;2023-03-23T03:21:08;13.40;99.90
8595;DHT22;4335;48.860;9.198;2023-03-23T03:23:42;13.40;99.90
8595;DHT22;4335;48.860;9.198;2023-03-23T03:26:16;13.30;99.90
8595;DHT22;4335;48.860;9.198;2023-03-23T03:28:48;13.30;99.90
8595;DHT22;4335;48.860;9.198;2023-03-23T03:31:18;13.30;99.90
8595;DHT22;4335;48.860;9.198;2023-03-23T03:33:46;13.30;99.90
8595;DHT22;4335;48.860;9.198;2023-03-23T03:36:19;13.20;99.90
8595;DHT22;4335;48.860;9.198;2023-03-23T03:38:51;13.20;99.90
8595;DHT22;4335;48.860;9.198;2023-03-23T03:41:19;13.20;99.90
8595;DHT22;4335;48.860;9.198;2023-03-23T03:43:47;13.20;99.90
8595;DHT22;4335;48.860;9.198;2023-03-23T03:46:16;13.20;99.90
8595;DHT22;4335;48.860;9.198;2023-03-23T03:48:44;13.20;99.90
8595;DHT22;4335;48.860;9.198;2023-03-23T03:51:19;13.20;99.90
8595;DHT22;4335;48.860;9.198;2023-03-23T03:53:46;13.20;99.90
8595;DHT22;4335;48.860;9.198;2023-03-23T03:56:17;13.20;99.90
8595;DHT22;4335;48.860;9.198;2023-03-23T03:58:45;13.20;99.90
8595;DHT22;4335;48.860;9.198;2023-03-23T04:01:14;13.20;99.90
8595;DHT22;4335;48.860;9.198;2023-03-23T04:03:51;13.20;99.90
8595;DHT22;4335;48.860;9.198;2023-03-23T04:06:20;13.20;99.90
8595;DHT22;4335;48.860;9.198;2023-03-23T04:08:54;13.20;99.90
8595;DHT22;4335;48.860;9.198;2023-03-23T04:11:21;13.20;99.90
8595;DHT22;4335;48.860;9.198;2023-03-23T04:13:49;13.20;99.90
8595;DHT22;4335;48.860;9.198;2023-03-23T04:16:16;13.20;99.90
8595;DHT22;4335;48.860;9.198;2023-03-23T04:18:46;13.20;99.90
8595;DHT22;4335;48.860;9.198;2023-03-23T04:21:17;13.20;99.90
8595;DHT22;4335;48.860;9.198;2023-03-23T04:23:46;13.20;99.90
8595;DHT22;4335;48.860;9.198;2023-03-23T04:26:14;13.20;99.90
8595;DHT22;4335;48.860;9.198;2023-03-23T04:28:41;13.20;99.90
8595;DHT22;4335;48.860;9.198;2023-03-23T04:31:12;13.20;99.90
8595;DHT22;4335;48.860;9.198;2023-03-23T04:33:40;13.20;99.90
8595;DHT22;4335;48.860;9.198;2023-03-23T04:36:08;13.20;99.90
8595;DHT22;4335;48.860;9.198;2023-03-23T04:38:38;13.20;99.90
8595;DHT22;4335;48.860;9.198;2023-03-23T04:41:10;13.20;99.90
8595;DHT22;4335;48.860;9.198;2023-03-23T04:43:41;13.30;99.90
8595;DHT22;4335;48.860;9.198;2023-03-23T04:46:08;13.30;99.90
8595;DHT22;4335;48.860;9.198;2023-03-23T04:48:39;13.30;99.90
8595;DHT22;4335;48.860;9.198;2023-03-23T04:51:06;13.30;99.90
8595;DHT22;4335;48.860;9.198;2023-03-23T04:53:34;13.40;99.90
8595;DHT22;4335;48.860;9.198;2023-03-23T04:56:01;13.40;99.90
8595;DHT22;4335;48.860;9.198;2023-03-23T04:58:30;13.40;99.90
8595;DHT22;4335;48.860;9.198;2023-03-23T05:00:59;13.40;99.90
8595;DHT22;4335;48.860;9.198;2023-03-23T05:03:27;13.40;99.90
8595;DHT22;4335;48.860;9.198;2023-03-23T05:05:54;13.40;99.90
8595;DHT22;4335;48.860;9.198;2023-03-23T05:08:23;13.30;99.90
8595;DHT22;4335;48.860;9.198;2023-03-23T05:10:58;13.30;99.90
8595;DHT22;4335;48.860;9.198;2023-03-23T05:13:27;13.30;99.90
8595;DHT22;4335;48.860;9.198;2023-03-23T05:15:56;13.30;99.90
8595;DHT22;4335;48.860;9.198;2023-03-23T05:18:23;13.30;99.90
8595;DHT22;4335;48.860;9.198;2023-03-23T05:20:51;13.30;99.90
8595;DHT22;4335;48.860;9.198;2023-03-23T05:23:22;13.30;99.90
8595;DHT22;4335;48.860;9.198;2023-03-23T05:25:57;13.30;99.90
8595;DHT22;4335;48.860;9.198;2023-03-23T05:28:27;13.30;99.90
8595;DHT22;4335;48.860;9.198;2023-03-23T05:31:01;13.30;99.90
8595;DHT22;4335;48.860;9.198;2023-03-23T05:33:28;13.30;99.90
8595;DHT22;4335;48.860;9.198;2023-03-23T05:36:02;13.30;99.90
8595;DHT22;4335;48.860;9.198;2023-03-23T05:38:30;13.30;99.90
8595;DHT22;4335;48.860;9.198;2023-03-23T05:40:58;13.30;99.90
8595;DHT22;4335;48.860;9.198;2023-03-23T05:43:27;13.40;99.90
8595;DHT22;4335;48.860;9.198;2023-03-23T05:45:54;13.40;99.90
8595;DHT22;4335;48.860;9.198;2023-03-23T05:48:24;13.50;99.90
8595;DHT22;4335;48.860;9.198;2023-03-23T05:50:51;13.50;99.90
8595;DHT22;4335;48.860;9.198;2023-03-23T05:53:19;13.60;99.90
8595;DHT22;4335;48.860;9.198;2023-03-23T05:55:49;13.60;99.90
8595;DHT22;4335;48.860;9.198;2023-03-23T05:58:17;13.70;99.90
8595;DHT22;4335;48.860;9.198;2023-03-23T06:00:47;13.70;99.90
8595;DHT22;4335;48.860;9.198;2023-03-23T06:03:18;13.80;99.90
8595;DHT22;4335;48.860;9.198;2023-03-23T06:05:46;13.90;99.90
8595;DHT22;4335;48.860;9.198;2023-03-23T06:08:17;14.00;99.90
8595;DHT22;4335;48.860;9.198;2023-03-23T06:10:44;14.10;99.90
8595;DHT22;4335;48.860;9.198;2023-03-23T06:13:15;14.10;99.90
8595;DHT22;4335;48.860;9.198;2023-03-23T06:15:45;14.10;99.90
8595;DHT22;4335;48.860;9.198;2023-03-23T06:18:13;14.20;99.90
8595;DHT22;4335;48.860;9.198;2023-03-23T06:20:41;14.20;99.90
8595;DHT22;4335;48.860;9.198;2023-03-23T06:23:11;14.30;99.90
8595;DHT22;4335;48.860;9.198;2023-03-23T06:25:42;14.30;99.90
8595;DHT22;4335;48.860;9.198;2023-03-23T06:28:12;14.30;99.90
8595;DHT22;4335;48.860;9.198;2023-03-23T06:30:41;14.40;99.90
8595;DHT22;4335;48.860;9.198;2023-03-23T06:33:12;14.40;99.90
8595;DHT22;4335;48.860;9.198;2023-03-23T06:35:39;14.50;99.90
8595;DHT22;4335;48.860;9.198;2023-03-23T06:38:07;14.50;99.90
8595;DHT22;4335;48.860;9.198;2023-03-23T06:40:36;14.50;99.90
8595;DHT22;4335;48.860;9.198;2023-03-23T06:43:03;14.60;99.90
8595;DHT22;4335;48.860;9.198;2023-03-23T06:45:31;14.60;99.90
8595;DHT22;4335;48.860;9.198;2023-03-23T06:47:58;14.60;99.90
8595;DHT22;4335;48.860;9.198;2023-03-23T06:50:29;14.60;99.90
8595;DHT22;4335;48.860;9.198;2023-03-23T06:52:56;14.60;99.90
8595;DHT22;4335;48.860;9.198;2023-03-23T06:55:24;14.70;99.90
8595;DHT22;4335;48.860;9.198;2023-03-23T06:57:53;14.80;99.90
8595;DHT22;4335;48.860;9.198;2023-03-23T07:00:20;14.90;99.90
8595;DHT22;4335;48.860;9.198;2023-03-23T07:02:48;15.00;99.90
8595;DHT22;4335;48.860;9.198;2023-03-23T07:05:15;15.10;99.90
8595;DHT22;4335;48.860;9.198;2023-03-23T07:07:43;15.20;99.90
8595;DHT22;4335;48.860;9.198;2023-03-23T07:10:13;15.30;99.90
8595;DHT22;4335;48.860;9.198;2023-03-23T07:12:40;15.30;99.90
8595;DHT22;4335;48.860;9.198;2023-03-23T07:15:10;15.20;99.90
8595;DHT22;4335;48.860;9.198;2023-03-23T07:17:38;15.20;99.90
8595;DHT22;4335;48.860;9.198;2023-03-23T07:20:06;15.20;99.90
8595;DHT22;4335;48.860;9.198;2023-03-23T07:22:34;15.20;99.90
8595;DHT22;4335;48.860;9.198;2023-03-23T07:25:02;15.20;99.90
8595;DHT22;4335;48.860;9.198;2023-03-23T07:27:33;15.20;99.90
8595;DHT22;4335;48.860;9.198;2023-03-23T07:30:01;15.20;99.90
8595;DHT22;4335;48.860;9.198;2023-03-23T07:32:33;15.10;99.90
8595;DHT22;4335;48.860;9.198;2023-03-23T07:35:03;15.20;99.90
8595;DHT22;4335;48.860;9.198;2023-03-23T07:37:30;15.20;99.90
8595;DHT22;4335;48.860;9.198;2023-03-23T07:39:58;15.10;99.90
8595;DHT22;4335;48.860;9.198;2023-03-23T07:42:26;15.10;99.90
8595;DHT22;4335;48.860;9.198;2023-03-23T07:44:53;15.10;99.90
8595;DHT22;4335;48.860;9.198;2023-03-23T07:47:21;15.10;99.90
8595;DHT22;4335;48.860;9.198;2023-03-23T07:49:52;15.10;99.90
8595;DHT22;4335;48.860;9.198;2023-03-23T07:52:20;15.10;99.90
8595;DHT22;4335;48.860;9.198;2023-03-23T07:54:47;15.10;99.90
8595;DHT22;4335;48.860;9.198;2023-03-23T07:57:14;15.30;99.90
8595;DHT22;4335;48.860;9.198;2023-03-23T07:59:42;15.50;99.90
8595;DHT22;4335;48.860;9.198;2023-03-23T08:02:09;15.80;99.90
8595;DHT22;4335;48.860;9.198;2023-03-23T08:04:37;16.00;99.90
8595;DHT22;4335;48.860;9.198;2023-03-23T08:07:06;16.20;99.90
8595;DHT22;4335;48.860;9.198;2023-03-23T08:09:33;16.20;99.90
8595;DHT22;4335;48.860;9.198;2023-03-23T08:12:01;16.30;99.90
8595;DHT22;4335;48.860;9.198;2023-03-23T08:14:31;16.30;99.90
8595;DHT22;4335;48.860;9.198;2023-03-23T08:17:02;16.30;99.90
8595;DHT22;4335;48.860;9.198;2023-03-23T08:19:29;16.30;99.90
8595;DHT22;4335;48.860;9.198;2023-03-23T08:22:02;16.30;99.90
8595;DHT22;4335;48.860;9.198;2023-03-23T08:24:32;16.30;99.90
8595;DHT22;4335;48.860;9.198;2023-03-23T08:27:02;16.30;99.90
8595;DHT22;4335;48.860;9.198;2023-03-23T08:29:30;16.30;99.90
8595;DHT22;4335;48.860;9.198;2023-03-23T08:32:01;16.30;99.90
8595;DHT22;4335;48.860;9.198;2023-03-23T08:34:32;16.30;99.90
8595;DHT22;4335;48.860;9.198;2023-03-23T08:37:00;16.40;99.90
8595;DHT22;4335;48.860;9.198;2023-03-23T08:39:27;16.30;99.90
8595;DHT22;4335;48.860;9.198;2023-03-23T08:42:01;16.30;99.90
8595;DHT22;4335;48.860;9.198;2023-03-23T08:44:29;16.30;99.90
8595;DHT22;4335;48.860;9.198;2023-03-23T08:46:57;16.30;99.90
8595;DHT22;4335;48.860;9.198;2023-03-23T08:49:30;16.30;99.90
8595;DHT22;4335;48.860;9.198;2023-03-23T08:52:03;16.30;99.90
8595;DHT22;4335;48.860;9.198;2023-03-23T08:54:34;16.30;99.90
8595;DHT22;4335;48.860;9.198;2023-03-23T08:57:09;16.30;99.90
8595;DHT22;4335;48.860;9.198;2023-03-23T08:59:48;16.30;99.90
8595;DHT22;4335;48.860;9.198;2023-03-23T09:02:16;16.30;99.90
8595;DHT22;4335;48.860;9.198;2023-03-23T09:04:43;16.20;99.90
8595;DHT22;4335;48.860;9.198;2023-03-23T09:07:11;16.20;99.90
8595;DHT22;4335;48.860;9.198;2023-03-23T09:09:43;16.20;99.90
8595;DHT22;4335;48.860;9.198;2023-03-23T09:12:21;16.00;99.90
8595;DHT22;4335;48.860;9.198;2023-03-23T09:14:49;16.00;99.90
8595;DHT22;4335;48.860;9.198;2023-03-23T09:17:17;15.90;99.90
8595;DHT22;4335;48.860;9.198;2023-03-23T09:19:47;15.90;99.90
8595;DHT22;4335;48.860;9.198;2023-03-23T09:22:20;15.90;99.90
8595;DHT22;4335;48.860;9.198;2023-03-23T09:24:58;15.80;99.90
8595;DHT22;4335;48.860;9.198;2023-03-23T09:27:27;15.80;99.90
8595;DHT22;4335;48.860;9.198;2023-03-23T09:29:54;15.90;99.90
8595;DHT22;4335;48.860;9.198;2023-03-23T09:32:22;15.90;99.90
8595;DHT22;4335;48.860;9.198;2023-03-23T09:34:49;15.90;99.90
8595;DHT22;4335;48.860;9.198;2023-03-23T09:37:20;15.90;99.90
8595;DHT22;4335;48.860;9.198;2023-03-23T09:39:53;15.90;99.90
8595;DHT22;4335;48.860;9.198;2023-03-23T09:42:36;16.10;99.90
8595;DHT22;4335;48.860;9.198;2023-03-23T09:45:18;16.10;99.90
8595;DHT22;4335;48.860;9.198;2023-03-23T09:48:18;16.20;99.90
8595;DHT22;4335;48.860;9.198;2023-03-23T09:50:55;16.30;99.90
8595;DHT22;4335;48.860;9.198;2023-03-23T09:53:32;16.30;99.90
8595;DHT22;4335;48.860;9.198;2023-03-23T09:56:11;16.30;99.90
8595;DHT22;4335;48.860;9.198;2023-03-23T09:58:46;16.20;99.90
8595;DHT22;4335;48.860;9.198;2023-03-23T10:01:23;16.30;99.90
8595;DHT22;4335;48.860;9.198;2023-03-23T10:03:58;16.20;99.90
8595;DHT22;4335;48.860;9.198;2023-03-23T10:06:28;16.30;99.90
8595;DHT22;4335;48.860;9.198;2023-03-23T10:08:59;16.30;99.90
8595;DHT22;4335;48.860;9.198;2023-03-23T10:11:40;16.20;99.90
8595;DHT22;4335;48.860;9.198;2023-03-23T10:17:14;16.30;99.90
8595;DHT22;4335;48.860;9.198;2023-03-23T10:19:47;16.30;99.90
8595;DHT22;4335;48.860;9.198;2023-03-23T10:22:21;16.50;99.90
8595;DHT22;4335;48.860;9.198;2023-03-23T10:24:59;16.60;99.90
8595;DHT22;4335;48.860;9.198;2023-03-23T10:27:42;17.00;99.90
8595;DHT22;4335;48.860;9.198;2023-03-23T10:30:24;17.00;99.90
8595;DHT22;4335;48.860;9.198;2023-03-23T10:32:54;17.10;99.90
8595;DHT22;4335;48.860;9.198;2023-03-23T10:35:26;17.30;99.90
8595;DHT22;4335;48.860;9.198;2023-03-23T10:37:59;17.60;99.90
8595;DHT22;4335;48.860;9.198;2023-03-23T10:40:48;18.10;99.90
8595;DHT22;4335;48.860;9.198;2023-03-23T10:43:17;18.60;99.90
8595;DHT22;4335;48.860;9.198;2023-03-23T10:45:56;18.50;99.90
8595;DHT22;4335;48.860;9.198;2023-03-23T10:48:29;18.20;99.90
8595;DHT22;4335;48.860;9.198;2023-03-23T10:51:03;18.00;99.90
8595;DHT22;4335;48.860;9.198;2023-03-23T10:53:33;17.80;99.90
8595;DHT22;4335;48.860;9.198;2023-03-23T10:56:02;17.60;99.90
8595;DHT22;4335;48.860;9.198;2023-03-23T10:58:31;17.40;99.90
8595;DHT22;4335;48.860;9.198;2023-03-23T11:01:11;17.20;99.90
8595;DHT22;4335;48.860;9.198;2023-03-23T11:03:45;17.20;99.90
8595;DHT22;4335;48.860;9.198;2023-03-23T11:06:20;17.30;99.90
8595;DHT22;4335;48.860;9.198;2023-03-23T11:08:52;17.60;99.90
8595;DHT22;4335;48.860;9.198;2023-03-23T11:11:26;17.70;99.90
8595;DHT22;4335;48.860;9.198;2023-03-23T11:13:58;17.80;99.90
8595;DHT22;4335;48.860;9.198;2023-03-23T11:16:30;17.60;99.90
8595;DHT22;4335;48.860;9.198;2023-03-23T11:18:59;17.70;99.90
8595;DHT22;4335;48.860;9.198;2023-03-23T11:21:27;17.70;99.90
8595;DHT22;4335;48.860;9.198;2023-03-23T11:23:59;17.60;99.90
8595;DHT22;4335;48.860;9.198;2023-03-23T11:26:34;17.50;99.90
8595;DHT22;4335;48.860;9.198;2023-03-23T11:29:05;17.50;99.90
8595;DHT22;4335;48.860;9.198;2023-03-23T11:31:36;17.40;99.90
8595;DHT22;4335;48.860;9.198;2023-03-23T11:34:13;17.40;99.90
8595;DHT22;4335;48.860;9.198;2023-03-23T11:36:43;17.30;99.90
8595;DHT22;4335;48.860;9.198;2023-03-23T11:39:21;17.50;99.90
8595;DHT22;4335;48.860;9.198;2023-03-23T11:41:49;17.60;99.90
8595;DHT22;4335;48.860;9.198;2023-03-23T11:44:21;17.70;99.90
8595;DHT22;4335;48.860;9.198;2023-03-23T11:46:58;17.80;99.90
8595;DHT22;4335;48.860;9.198;2023-03-23T11:49:45;18.00;99.90
8595;DHT22;4335;48.860;9.198;2023-03-23T11:52:23;18.20;99.90
8595;DHT22;4335;48.860;9.198;2023-03-23T11:54:58;18.20;99.90
8595;DHT22;4335;48.860;9.198;2023-03-23T11:57:30;18.20;99.90
8595;DHT22;4335;48.860;9.198;2023-03-23T12:00:00;18.30;99.90
8595;DHT22;4335;48.860;9.198;2023-03-23T12:02:55;18.30;99.90
8595;DHT22;4335;48.860;9.198;2023-03-23T12:05:44;18.40;99.90
8595;DHT22;4335;48.860;9.198;2023-03-23T12:08:27;18.40;99.90
8595;DHT22;4335;48.860;9.198;2023-03-23T12:11:03;18.30;99.90
8595;DHT22;4335;48.860;9.198;2023-03-23T12:13:56;17.90;99.90
8595;DHT22;4335;48.860;9.198;2023-03-23T12:16:38;17.80;99.90
8595;DHT22;4335;48.860;9.198;2023-03-23T12:19:21;17.80;99.90
8595;DHT22;4335;48.860;9.198;2023-03-23T12:21:59;17.80;99.90
8595;DHT22;4335;48.860;9.198;2023-03-23T12:24:43;17.80;99.90
8595;DHT22;4335;48.860;9.198;2023-03-23T12:27:18;17.90;99.90
8595;DHT22;4335;48.860;9.198;2023-03-23T12:30:11;17.90;99.90
8595;DHT22;4335;48.860;9.198;2023-03-23T12:32:52;18.10;99.90
8595;DHT22;4335;48.860;9.198;2023-03-23T12:35:36;18.10;99.90
8595;DHT22;4335;48.860;9.198;2023-03-23T12:38:26;17.90;99.90
8595;DHT22;4335;48.860;9.198;2023-03-23T12:41:03;17.70;99.90
8595;DHT22;4335;48.860;9.198;2023-03-23T12:43:38;17.70;99.90
8595;DHT22;4335;48.860;9.198;2023-03-23T12:46:16;17.60;99.90
8595;DHT22;4335;48.860;9.198;2023-03-23T12:48:49;17.50;99.90
8595;DHT22;4335;48.860;9.198;2023-03-23T12:51:28;17.60;99.90
8595;DHT22;4335;48.860;9.198;2023-03-23T12:54:07;17.70;99.90
8595;DHT22;4335;48.860;9.198;2023-03-23T12:56:47;17.60;99.90
8595;DHT22;4335;48.860;9.198;2023-03-23T12:59:20;17.50;99.90
8595;DHT22;4335;48.860;9.198;2023-03-23T13:01:53;17.40;99.90
8595;DHT22;4335;48.860;9.198;2023-03-23T13:04:26;17.40;99.90
8595;DHT22;4335;48.860;9.198;2023-03-23T13:06:58;17.40;99.90
8595;DHT22;4335;48.860;9.198;2023-03-23T13:09:40;17.50;99.90
8595;DHT22;4335;48.860;9.198;2023-03-23T13:12:09;17.40;99.90
8595;DHT22;4335;48.860;9.198;2023-03-23T13:14:43;17.60;99.90
8595;DHT22;4335;48.860;9.198;2023-03-23T13:17:22;17.60;99.90
8595;DHT22;4335;48.860;9.198;2023-03-23T13:20:27;17.70;99.90
8595;DHT22;4335;48.860;9.198;2023-03-23T13:23:12;17.80;99.90
8595;DHT22;4335;48.860;9.198;2023-03-23T13:25:53;17.90;99.90
8595;DHT22;4335;48.860;9.198;2023-03-23T13:28:24;18.00;99.90
8595;DHT22;4335;48.860;9.198;2023-03-23T13:30:59;18.10;99.90
8595;DHT22;4335;48.860;9.198;2023-03-23T13:33:30;18.10;99.90
8595;DHT22;4335;48.860;9.198;2023-03-23T13:36:12;18.10;99.90
8595;DHT22;4335;48.860;9.198;2023-03-23T13:38:47;18.00;99.90
8595;DHT22;4335;48.860;9.198;2023-03-23T13:41:16;18.10;99.90
8595;DHT22;4335;48.860;9.198;2023-03-23T13:43:46;18.10;99.90
8595;DHT22;4335;48.860;9.198;2023-03-23T13:46:27;18.00;99.90
8595;DHT22;4335;48.860;9.198;2023-03-23T13:49:16;18.00;99.90
8595;DHT22;4335;48.860;9.198;2023-03-23T13:52:06;18.00;99.90
8595;DHT22;4335;48.860;9.198;2023-03-23T13:54:42;17.90;99.90
8595;DHT22;4335;48.860;9.198;2023-03-23T13:57:24;17.90;99.90
8595;DHT22;4335;48.860;9.198;2023-03-23T13:59:57;17.90;99.90
8595;DHT22;4335;48.860;9.198;2023-03-23T14:02:34;17.90;99.90
8595;DHT22;4335;48.860;9.198;2023-03-23T14:05:29;17.80;99.90
8595;DHT22;4335;48.860;9.198;2023-03-23T14:08:02;17.80;99.90
8595;DHT22;4335;48.860;9.198;2023-03-23T14:10:39;17.90;99.90
8595;DHT22;4335;48.860;9.198;2023-03-23T14:13:17;17.80;99.90
8595;DHT22;4335;48.860;9.198;2023-03-23T14:15:58;17.80;99.90
8595;DHT22;4335;48.860;9.198;2023-03-23T14:18:30;17.80;99.90
8595;DHT22;4335;48.860;9.198;2023-03-23T14:20:59;17.90;99.90
8595;DHT22;4335;48.860;9.198;2023-03-23T14:23:27;17.90;99.90
8595;DHT22;4335;48.860;9.198;2023-03-23T14:26:00;18.00;99.90
8595;DHT22;4335;48.860;9.198;2023-03-23T14:28:49;18.10;99.90
8595;DHT22;4335;48.860;9.198;2023-03-23T14:31:20;18.20;99.90
8595;DHT22;4335;48.860;9.198;2023-03-23T14:33:48;18.20;99.90
8595;DHT22;4335;48.860;9.198;2023-03-23T14:36:21;18.20;99.90
8595;DHT22;4335;48.860;9.198;2023-03-23T14:39:00;18.10;99.90
8595;DHT22;4335;48.860;9.198;2023-03-23T14:41:35;18.10;99.90
8595;DHT22;4335;48.860;9.198;2023-03-23T14:44:07;18.00;99.90
8595;DHT22;4335;48.860;9.198;2023-03-23T14:46:36;17.90;99.90
8595;DHT22;4335;48.860;9.198;2023-03-23T14:49:04;17.90;99.90
8595;DHT22;4335;48.860;9.198;2023-03-23T14:51:35;17.90;99.90
8595;DHT22;4335;48.860;9.198;2023-03-23T14:54:09;17.80;99.90
8595;DHT22;4335;48.860;9.198;2023-03-23T14:56:40;17.80;99.90
8595;DHT22;4335;48.860;9.198;2023-03-23T14:59:15;17.80;99.90
8595;DHT22;4335;48.860;9.198;2023-03-23T15:01:43;17.70;99.90
8595;DHT22;4335;48.860;9.198;2023-03-23T15:04:14;17.70;99.90
8595;DHT22;4335;48.860;9.198;2023-03-23T15:06:45;17.70;99.90
8595;DHT22;4335;48.860;9.198;2023-03-23T15:09:16;17.70;99.90
8595;DHT22;4335;48.860;9.198;2023-03-23T15:11:52;17.70;99.90
8595;DHT22;4335;48.860;9.198;2023-03-23T15:14:22;17.70;99.90
8595;DHT22;4335;48.860;9.198;2023-03-23T15:16:57;17.70;99.90
8595;DHT22;4335;48.860;9.198;2023-03-23T15:19:26;17.70;99.90
8595;DHT22;4335;48.860;9.198;2023-03-23T15:22:03;17.70;99.90
8595;DHT22;4335;48.860;9.198;2023-03-23T15:24:33;17.60;99.90
8595;DHT22;4335;48.860;9.198;2023-03-23T15:27:13;17.70;99.90
8595;DHT22;4335;48.860;9.198;2023-03-23T15:29:49;17.60;99.90
8595;DHT22;4335;48.860;9.198;2023-03-23T15:32:22;17.60;99.90
8595;DHT22;4335;48.860;9.198;2023-03-23T15:34:50;17.60;99.90
8595;DHT22;4335;48.860;9.198;2023-03-23T15:37:24;17.50;99.90
8595;DHT22;4335;48.860;9.198;2023-03-23T15:39:53;17.50;99.90
8595;DHT22;4335;48.860;9.198;2023-03-23T15:42:25;17.50;99.90
8595;DHT22;4335;48.860;9.198;2023-03-23T15:45:22;17.50;99.90
8595;DHT22;4335;48.860;9.198;2023-03-23T15:47:50;17.50;99.90
8595;DHT22;4335;48.860;9.198;2023-03-23T15:50:20;17.40;99.90
8595;DHT22;4335;48.860;9.198;2023-03-23T15:52:47;17.50;99.90
8595;DHT22;4335;48.860;9.198;2023-03-23T15:55:23;17.50;99.90
8595;DHT22;4335;48.860;9.198;2023-03-23T15:57:53;17.40;99.90
8595;DHT22;4335;48.860;9.198;2023-03-23T16:00:25;17.40;99.90
8595;DHT22;4335;48.860;9.198;2023-03-23T16:02:56;17.40;99.90
8595;DHT22;4335;48.860;9.198;2023-03-23T16:05:26;17.40;99.90
8595;DHT22;4335;48.860;9.198;2023-03-23T16:07:57;17.40;99.90
8595;DHT22;4335;48.860;9.198;2023-03-23T16:10:25;17.30;99.90
8595;DHT22;4335;48.860;9.198;2023-03-23T16:12:55;17.30;99.90
8595;DHT22;4335;48.860;9.198;2023-03-23T16:15:22;17.40;99.90
8595;DHT22;4335;48.860;9.198;2023-03-23T16:17:49;17.30;99.90
8595;DHT22;4335;48.860;9.198;2023-03-23T16:20:18;17.30;99.90
8595;DHT22;4335;48.860;9.198;2023-03-23T16:22:46;17.20;99.90
8595;DHT22;4335;48.860;9.198;2023-03-23T16:25:14;17.20;99.90
8595;DHT22;4335;48.860;9.198;2023-03-23T16:27:42;17.20;99.90
8595;DHT22;4335;48.860;9.198;2023-03-23T16:30:18;17.20;99.90
8595;DHT22;4335;48.860;9.198;2023-03-23T16:32:46;17.10;99.90
8595;DHT22;4335;48.860;9.198;2023-03-23T16:35:14;17.10;99.90
8595;DHT22;4335;48.860;9.198;2023-03-23T16:37:49;17.10;99.90
8595;DHT22;4335;48.860;9.198;2023-03-23T16:40:18;17.00;99.90
8595;DHT22;4335;48.860;9.198;2023-03-23T16:42:45;17.00;99.90
8595;DHT22;4335;48.860;9.198;2023-03-23T16:45:16;17.00;99.90
8595;DHT22;4335;48.860;9.198;2023-03-23T16:47:44;16.90;99.90
8595;DHT22;4335;48.860;9.198;2023-03-23T16:50:14;16.90;99.90
8595;DHT22;4335;48.860;9.198;2023-03-23T16:52:43;16.90;99.90
8595;DHT22;4335;48.860;9.198;2023-03-23T16:55:16;17.00;99.90
8595;DHT22;4335;48.860;9.198;2023-03-23T16:57:46;16.90;99.90